Thunder radar more information blitzortung!


Radar de pluja more information rain snow radar


Visita la nostra xarxa de llocs de meteo:

Template documentation
and downloads

And another site



No particular awareness of the weather is required.    There are no Weather-warnings

Pagina Historial Weather Underground text

Diari Resum Setembre 28, 2017 Unitats:  Mètric    Imperial   Tant
« Previous Dia
SegĂźent Dia »
Diari Setmana Mensual Anual Personalitzada
  Maxima: Minima: Media:
Temperatura: -17.8 °C -9.3 °C -6 °C
Punt de rosada: -17.8 °C -10.4 °C -9.6 °C
Humitat: Humidity % 54 % 67 %
Wind Speed: 0 km/h 0 km/h 9 km/h
RĂ fegues de vent: 0 km/h - -
Vent:- - SSE
Pression baro: 0 hPa 34635.4 hPa -
Precipitacions: 0 mm    
Historical Graphs
 
 
Dades de taula per Setembre 28, 2017
Temps Temperatura Punt de rosada Pression baro Vent Wind Speed RĂ fegues de vent Humitat Rainfall Rate (Hourly)
-17.8 °C -17.8 °C 0 hPa Calm     Humidity % 0 mm
00:03 -7.9 °C -10.2 °C 34703.1 hPa Calm     77 % 0 mm
01:35 -8.9 °C -10.2 °C 34703.1 hPa Calm   5.1 km/h 86 % 0 mm
01:45 -9.1 °C -10.4 °C 34703.1 hPa WSW 2.6 km/h 5.1 km/h 85 % 0 mm
01:55 -9 °C -10.3 °C 34740.4 hPa Calm   5.1 km/h 86 % 0 mm
02:05 -8.9 °C -10.1 °C 34740.4 hPa Calm     87 % 0 mm
02:15 -8.9 °C -10.1 °C 34740.4 hPa NNE 2.6 km/h 5.1 km/h 87 % 0 mm
02:25 -9 °C -10.3 °C 34703.1 hPa NE 2.6 km/h 5.1 km/h 86 % 0 mm
02:35 -9.1 °C -10.4 °C 34703.1 hPa WSW 2.6 km/h 5.1 km/h 86 % 0 mm
02:45 -9.1 °C -10.3 °C 34740.4 hPa Calm   2.6 km/h 87 % 0 mm
02:55 -9.1 °C -10.3 °C 34740.4 hPa Calm     87 % 0 mm
03:05 -9.1 °C -10.2 °C 34740.4 hPa Calm     88 % 0 mm
03:15 -9.1 °C -10.2 °C 34740.4 hPa Calm     88 % 0 mm
03:25 -9.3 °C -10.4 °C 34740.4 hPa WNW 2.6 km/h 5.1 km/h 87 % 0 mm
03:35 -9.1 °C -10.2 °C 34740.4 hPa Calm   5.1 km/h 88 % 0 mm
03:45 -8.9 °C -10.1 °C 34740.4 hPa WSW 2.6 km/h 5.1 km/h 88 % 0 mm
03:55 -8.8 °C -10.1 °C 34740.4 hPa SW 5.1 km/h 5.1 km/h 87 % 0 mm
04:05 -8.7 °C -9.9 °C 34740.4 hPa SW 2.6 km/h 5.1 km/h 87 % 0 mm
04:15 -8.6 °C -9.7 °C 34740.4 hPa Calm   2.6 km/h 88 % 0 mm
04:25 -8.4 °C -9.7 °C 34740.4 hPa Calm     87 % 0 mm
04:35 -8.4 °C -9.6 °C 34740.4 hPa Calm   5.1 km/h 87 % 0 mm
04:45 -8.3 °C -9.6 °C 34740.4 hPa Calm   5.1 km/h 86 % 0 mm
04:55 -8.2 °C -9.6 °C 34740.4 hPa NE 5.1 km/h 5.1 km/h 85 % 0 mm
05:05 -8.1 °C -9.6 °C 34740.4 hPa NE 2.6 km/h 2.6 km/h 84 % 0 mm
05:15 -7.9 °C -9.5 °C 34774.2 hPa NE 5.1 km/h 7.7 km/h 83 % 0 mm
05:25 -7.7 °C -9.4 °C 34774.2 hPa NE 2.6 km/h 5.1 km/h 82 % 0 mm
05:35 -7.7 °C -9.5 °C 34774.2 hPa NNE 5.1 km/h 10.3 km/h 81 % 0 mm
05:45 -7.6 °C -9.5 °C 34774.2 hPa NE 7.7 km/h 10.3 km/h 80 % 0 mm
10:47 -7.3 °C -9.4 °C 34774.2 hPa ENE 9 km/h 9 km/h 79 % 0 mm
10:52 -7.2 °C -9.4 °C 34774.2 hPa WNW 3.7 km/h 3.7 km/h 78 % 0 mm
10:57 -7.1 °C -9.3 °C 34774.2 hPa ENE 6 km/h 6 km/h 78 % 0 mm
11:02 -7.1 °C -9.3 °C 34808.1 hPa NNW 9 km/h 9 km/h 77 % 0 mm
11:07 -6.9 °C -9.3 °C 34808.1 hPa NNE 6 km/h 6 km/h 77 % 0 mm
11:12 -6.9 °C -9.2 °C 34808.1 hPa ENE 11.1 km/h 11.1 km/h 77 % 0 mm
11:17 -6.7 °C -9.1 °C 34808.1 hPa ENE 9 km/h 9 km/h 76 % 0 mm
11:19 -6.7 °C -9.1 °C 34808.1 hPa NE 11.9 km/h 11.9 km/h 76 % 0 mm
11:24 -6.4 °C -9.1 °C 34808.1 hPa NNE 11.9 km/h 11.9 km/h 74 % 0 mm
11:29 -6.2 °C -8.9 °C 34808.1 hPa NE 15.3 km/h 15.3 km/h 74 % 0 mm
11:34 -6 °C -8.7 °C 34774.2 hPa NNE 11.9 km/h 11.9 km/h 74 % 0 mm
11:39 -5.9 °C -8.7 °C 34774.2 hPa ENE 9.3 km/h 9.3 km/h 73 % 0 mm
11:44 -5.8 °C -8.8 °C 34774.2 hPa East 6.8 km/h 6.8 km/h 72 % 0 mm
11:54 -5.4 °C -8.6 °C 34774.2 hPa ESE 9 km/h 9 km/h 70 % 0 mm
11:59 -5.6 °C -8.7 °C 34774.2 hPa ENE 11.9 km/h 11.9 km/h 70 % 0 mm
12:04 -5.5 °C -8.8 °C 34774.2 hPa ESE 11.9 km/h 11.9 km/h 69 % 0 mm
12:09 -5.5 °C -8.8 °C 34774.2 hPa SW 6 km/h 6 km/h 69 % 0 mm
12:14 -5.3 °C -8.8 °C 34774.2 hPa ESE 9 km/h 9 km/h 68 % 0 mm
12:19 -5.4 °C -8.9 °C 34774.2 hPa NNW 9 km/h 9 km/h 68 % 0 mm
12:20 -5.4 °C -8.9 °C 34774.2 hPa NNW 6 km/h 6 km/h 68 % 0 mm
12:25 -5.3 °C -8.8 °C 34774.2 hPa North 6 km/h 6 km/h 67 % 0 mm
12:30 -5.2 °C -8.7 °C 34774.2 hPa West 6.3 km/h 6.3 km/h 67 % 0 mm
12:35 -4.8 °C -8.6 °C 34740.4 hPa ESE 4.2 km/h   66 % 0 mm
12:40 -4.8 °C -8.8 °C 34740.4 hPa ESE 15 km/h 15 km/h 64 % 0 mm
12:45 -4.9 °C -8.9 °C 34740.4 hPa East 12.7 km/h 12.7 km/h 64 % 0 mm
12:50 -5 °C -9 °C 34740.4 hPa SSE 11.9 km/h 11.9 km/h 64 % 0 mm
12:55 -4.7 °C -8.7 °C 34740.4 hPa ENE 6 km/h 6 km/h 64 % 0 mm
13:00 -4.7 °C -8.8 °C 34740.4 hPa East 9 km/h 9 km/h 63 % 0 mm
13:05 -4.6 °C -8.7 °C 34703.1 hPa SSE 3.1 km/h 3.1 km/h 63 % 0 mm
13:10 -4.1 °C -8.6 °C 34703.1 hPa SSE 6 km/h 6 km/h 61 % 0 mm
13:15 -4.3 °C -9.2 °C 34703.1 hPa SSE 15 km/h 15 km/h 58 % 0 mm
13:20 -4.2 °C -8.8 °C 34740.4 hPa South 6 km/h 6 km/h 60 % 0 mm
13:25 -4 °C -8.8 °C 34740.4 hPa ENE 15 km/h 15 km/h 59 % 0 mm
13:26 -4.1 °C -8.8 °C 34740.4 hPa East 15 km/h 15 km/h 59 % 0 mm
13:31 -4.2 °C -9.1 °C 34740.4 hPa ENE 9 km/h 9 km/h 58 % 0 mm
13:36 -4.3 °C -9.3 °C 34740.4 hPa ESE 11.9 km/h 12.2 km/h 57 % 0 mm
13:41 -4.5 °C -9.2 °C 34740.4 hPa ESE 15.6 km/h 15.6 km/h 59 % 0 mm
13:46 -4.3 °C -9.3 °C 34740.4 hPa East 12.7 km/h 15.3 km/h 57 % 0 mm
13:51 -4.3 °C -9.3 °C 34740.4 hPa ESE 19.6 km/h 19.6 km/h 57 % 0 mm
13:56 -4.3 °C -9.3 °C 34740.4 hPa East 16.1 km/h 16.1 km/h 57 % 0 mm
14:01 -4.1 °C -9.2 °C 34740.4 hPa ENE 15 km/h 15 km/h 57 % 0 mm
14:06 -3.9 °C -9.2 °C 34740.4 hPa ESE 17.9 km/h 17.9 km/h 56 % 0 mm
14:11 -4.3 °C -9.5 °C 34740.4 hPa East 20.9 km/h 20.9 km/h 56 % 0 mm
14:16 -4.3 °C -9.5 °C 34740.4 hPa ESE 26.9 km/h 26.9 km/h 56 % 0 mm
14:21 -4.3 °C -9.6 °C 34740.4 hPa ESE 26.9 km/h 26.9 km/h 55 % 0 mm
14:26 -4.3 °C -9.5 °C 34740.4 hPa East 20.9 km/h 20.9 km/h 56 % 0 mm
14:36 -4.1 °C -9.3 °C 34740.4 hPa ESE 17.9 km/h 17.9 km/h 56 % 0 mm
14:41 -4.3 °C -9.3 °C 34740.4 hPa ESE 16.6 km/h 16.6 km/h 57 % 0 mm
14:46 -4.1 °C -9.1 °C 34703.1 hPa SSE 20.9 km/h 20.9 km/h 57 % 0 mm
14:51 -3.8 °C -9.1 °C 34703.1 hPa SSE 9 km/h 9 km/h 56 % 0 mm
14:56 -3.8 °C -9 °C 34703.1 hPa East 17.9 km/h 17.9 km/h 56 % 0 mm
15:01 -4 °C -9.1 °C 34703.1 hPa South 20.9 km/h 20.9 km/h 57 % 0 mm
15:06 -3.9 °C -9.2 °C 34703.1 hPa SSW 11.9 km/h 11.9 km/h 56 % 0 mm
15:11 -4 °C -9.1 °C 34703.1 hPa SW 20.3 km/h 20.3 km/h 57 % 0 mm
15:16 -4.1 °C -9.2 °C 34703.1 hPa ENE 10.3 km/h 10.3 km/h 57 % 0 mm
15:21 -4.3 °C -9.3 °C 34703.1 hPa ESE 15.3 km/h 15.3 km/h 57 % 0 mm
15:26 -4.3 °C -9.2 °C 34703.1 hPa ESE 15.6 km/h 15.6 km/h 58 % 0 mm
15:31 -4.3 °C -9.3 °C 34703.1 hPa ESE 17.9 km/h 17.9 km/h 57 % 0 mm
15:36 -4.6 °C -9.3 °C 34703.1 hPa ESE 18.3 km/h 18.3 km/h 59 % 0 mm
15:41 -4.7 °C -9.4 °C 34703.1 hPa ESE 15 km/h 15 km/h 59 % 0 mm
15:46 -4.7 °C -9.4 °C 34669.3 hPa ESE 15 km/h 15 km/h 59 % 0 mm
15:51 -4.6 °C -9.3 °C 34669.3 hPa ESE 9 km/h 9 km/h 59 % 0 mm
15:56 -4.7 °C -9.4 °C 34669.3 hPa East 20.9 km/h 20.9 km/h 59 % 0 mm
16:01 -4.6 °C -9.2 °C 34669.3 hPa SSW 9 km/h 9 km/h 60 % 0 mm
16:06 -4.7 °C -9.2 °C 34669.3 hPa ESE 15 km/h 15 km/h 60 % 0 mm
16:11 -4.8 °C -9.3 °C 34669.3 hPa East 15 km/h 15 km/h 60 % 0 mm
16:16 -4.8 °C -9.3 °C 34669.3 hPa ESE 15 km/h 15 km/h 60 % 0 mm
16:21 -4.7 °C -9.3 °C 34669.3 hPa East 12.2 km/h 12.2 km/h 60 % 0 mm
16:26 -4.8 °C -9.4 °C 34669.3 hPa East 11.9 km/h 11.9 km/h 60 % 0 mm
16:31 -4.8 °C -9.4 °C 34703.1 hPa East 20.9 km/h 20.9 km/h 60 % 0 mm
16:36 -4.8 °C -9.4 °C 34703.1 hPa ESE 15.3 km/h 15.3 km/h 60 % 0 mm
16:41 -4.8 °C -9.4 °C 34703.1 hPa ESE 17.9 km/h 17.9 km/h 60 % 0 mm
16:46 -4.9 °C -9.4 °C 34669.3 hPa SE 20.9 km/h 20.9 km/h 60 % 0 mm
16:51 -4.7 °C -9.3 °C 34669.3 hPa South 11.9 km/h 11.9 km/h 60 % 0 mm
16:56 -4.6 °C -9.3 °C 34669.3 hPa South 11.9 km/h 11.9 km/h 59 % 0 mm
17:01 -4.6 °C -9.3 °C 34669.3 hPa South 9 km/h 9 km/h 59 % 0 mm
17:06 -4.7 °C -9.4 °C 34669.3 hPa East 9 km/h 9 km/h 59 % 0 mm
17:07 -4.7 °C -9.4 °C 34669.3 hPa ESE 9.8 km/h 9.8 km/h 59 % 0 mm
17:12 -4.7 °C -9.4 °C 34669.3 hPa ENE 11.9 km/h 11.9 km/h 59 % 0 mm
17:17 -4.7 °C -9.6 °C 34669.3 hPa ESE 11.9 km/h 11.9 km/h 58 % 0 mm
17:22 -4.5 °C -9.2 °C 34669.3 hPa SE 11.9 km/h 11.9 km/h 59 % 0 mm
17:27 -4.3 °C -9.3 °C 34669.3 hPa South 11.9 km/h 11.9 km/h 57 % 0 mm
17:32 -4.3 °C -9.3 °C 34669.3 hPa North 6 km/h 6 km/h 57 % 0 mm
17:37 -4.1 °C -9.2 °C 34669.3 hPa WSW 9.3 km/h 9.3 km/h 57 % 0 mm
17:42 -3.9 °C -9.2 °C 34669.3 hPa SW 11.9 km/h 11.9 km/h 56 % 0 mm
17:47 -3.7 °C -9.3 °C 34669.3 hPa SSW 11.9 km/h 11.9 km/h 54 % 0 mm
17:52 -3.7 °C -9.2 °C 34669.3 hPa SSW 11.9 km/h 11.9 km/h 54 % 0 mm
17:57 -3.8 °C -9.4 °C 34669.3 hPa SSW 17.9 km/h 17.9 km/h 54 % 0 mm
18:02 -4.1 °C -9.4 °C 34669.3 hPa SW 11.9 km/h 11.9 km/h 55 % 0 mm
18:07 -3.9 °C -9.5 °C 34669.3 hPa West 11.9 km/h 11.9 km/h 54 % 0 mm
18:12 -3.9 °C -9.5 °C 34669.3 hPa South 6.8 km/h 6.8 km/h 54 % 0 mm
18:17 -3.9 °C -9.5 °C 34669.3 hPa SSW 11.9 km/h 11.9 km/h 54 % 0 mm
18:22 -4.1 °C -9.6 °C 34669.3 hPa SW 23.8 km/h 23.8 km/h 54 % 0 mm
18:27 -4.1 °C -9.6 °C 34669.3 hPa SW 15 km/h 15 km/h 54 % 0 mm
18:32 -4.2 °C -9.7 °C 34669.3 hPa SW 11.9 km/h 11.9 km/h 54 % 0 mm
18:37 -4.2 °C -9.7 °C 34669.3 hPa SSW 15 km/h 15 km/h 54 % 0 mm
18:42 -4.3 °C -9.7 °C 34669.3 hPa SW 15 km/h 15 km/h 55 % 0 mm
18:47 -4.6 °C -9.7 °C 34669.3 hPa SW 11.9 km/h 11.9 km/h 56 % 0 mm
18:52 -4.6 °C -9.7 °C 34669.3 hPa SSW 11.9 km/h 11.9 km/h 56 % 0 mm
18:57 -4.6 °C -9.8 °C 34669.3 hPa SSE 9 km/h 9 km/h 56 % 0 mm
19:02 -4.7 °C -9.9 °C 34669.3 hPa SW 15 km/h 15 km/h 56 % 0 mm
19:07 -4.9 °C -9.9 °C 34669.3 hPa WSW 9 km/h 9 km/h 57 % 0 mm
19:12 -5.1 °C -10.1 °C 34669.3 hPa SW 9 km/h 9 km/h 57 % 0 mm
19:17 -5.2 °C -10.2 °C 34669.3 hPa SW 12.2 km/h 12.2 km/h 57 % 0 mm
19:22 -5.3 °C -10.2 °C 34669.3 hPa South 15 km/h 15 km/h 58 % 0 mm
19:27 -5.4 °C -10.2 °C 34669.3 hPa SW 15.3 km/h 15.3 km/h 58 % 0 mm
19:29 -5.5 °C -10.2 °C 34669.3 hPa SW 17.9 km/h 17.9 km/h 59 % 0 mm
19:34 -5.6 °C -10.1 °C 34635.4 hPa WSW 15.3 km/h 15.3 km/h 60 % 0 mm
19:39 -5.7 °C -10.1 °C 34635.4 hPa SSW 11.9 km/h 11.9 km/h 61 % 0 mm
19:44 -5.8 °C -10.2 °C 34635.4 hPa South 10.3 km/h 10.3 km/h 61 % 0 mm
19:49 -5.9 °C -10.2 °C 34669.3 hPa SW 11.9 km/h 11.9 km/h 62 % 0 mm
19:54 -6 °C -10.1 °C 34669.3 hPa SW 11.9 km/h 11.9 km/h 63 % 0 mm
19:59 -6.1 °C -10.2 °C 34669.3 hPa SW 17.9 km/h 17.9 km/h 63 % 0 mm
20:04 -6.2 °C -10.1 °C 34635.4 hPa SSW 9 km/h 9 km/h 64 % 0 mm
20:09 -6.2 °C -10 °C 34635.4 hPa WSW 11.9 km/h 11.9 km/h 65 % 0 mm
20:14 -6.3 °C -10.1 °C 34635.4 hPa SW 11.9 km/h 11.9 km/h 65 % 0 mm
20:19 -6.3 °C -10 °C 34635.4 hPa SW 9 km/h 9 km/h 66 % 0 mm
20:24 -6.4 °C -10.1 °C 34635.4 hPa West 9 km/h 9 km/h 66 % 0 mm
20:25 -6.4 °C -10.1 °C 34635.4 hPa WSW 9 km/h 9 km/h 66 % 0 mm
20:30 -6.4 °C -9.9 °C 34635.4 hPa SW 6.3 km/h 6.3 km/h 67 % 0 mm
20:35 -6.5 °C -10.1 °C 34635.4 hPa SW 6.3 km/h 6.8 km/h 67 % 0 mm
20:40 -6.6 °C -9.9 °C 34635.4 hPa SW 9 km/h 9 km/h 68 % 0 mm
20:45 -6.6 °C -10 °C 34635.4 hPa South 15 km/h 15 km/h 68 % 0 mm
20:50 -6.7 °C -9.9 °C 34635.4 hPa SSW 9 km/h 9 km/h 69 % 0 mm
20:55 -6.7 °C -9.9 °C 34635.4 hPa SW 9 km/h 9 km/h 69 % 0 mm
21:00 -6.7 °C -9.7 °C 34635.4 hPa WSW 6.3 km/h 6.3 km/h 71 % 0 mm
21:05 -6.8 °C -9.8 °C 34669.3 hPa SSW 9 km/h 9 km/h 71 % 0 mm
21:10 -6.8 °C -9.8 °C 34669.3 hPa WSW 6 km/h 6.8 km/h 71 % 0 mm
21:15 -6.8 °C -9.7 °C 34669.3 hPa SW 8 km/h 8 km/h 72 % 0 mm
21:20 -6.9 °C -9.8 °C 34669.3 hPa SW 6.8 km/h 6.8 km/h 72 % 0 mm
21:25 -6.9 °C -9.8 °C 34669.3 hPa SW 6.3 km/h 6.3 km/h 72 % 0 mm
21:30 -6.9 °C -9.7 °C 34669.3 hPa SW 5.1 km/h 5.1 km/h 73 % 0 mm
21:35 -6.9 °C -9.7 °C 34669.3 hPa WSW 3.1 km/h 3.1 km/h 73 % 0 mm
21:40 -7 °C -9.8 °C 34669.3 hPa Calm     73 % 0 mm
21:45 -7.1 °C -9.8 °C 34669.3 hPa Calm     73 % 0 mm
21:50 -7.1 °C -9.7 °C 34703.1 hPa Calm     74 % 0 mm
21:55 -7.1 °C -9.8 °C 34703.1 hPa NW 2.3 km/h   74 % 0 mm
22:00 -7.2 °C -9.8 °C 34703.1 hPa Calm     74 % 0 mm
22:05 -7.2 °C -9.8 °C 34703.1 hPa NNW 3.1 km/h 3.1 km/h 74 % 0 mm
22:10 -7.2 °C -9.8 °C 34703.1 hPa Calm     74 % 0 mm
22:15 -7.2 °C -9.8 °C 34703.1 hPa WNW 4.2 km/h   74 % 0 mm
22:20 -7.2 °C -9.8 °C 34703.1 hPa West 3.1 km/h 3.7 km/h 74 % 0 mm
22:25 -7.3 °C -9.7 °C 34703.1 hPa West 2.3 km/h   76 % 0 mm
22:30 -7.3 °C -9.7 °C 34703.1 hPa Calm     76 % 0 mm
22:35 -7.3 °C -9.7 °C 34740.4 hPa Calm     76 % 0 mm
22:40 -7.4 °C -9.8 °C 34740.4 hPa Calm     76 % 0 mm
22:45 -7.4 °C -9.8 °C 34740.4 hPa Calm     76 % 0 mm
22:50 -7.5 °C -9.8 °C 34740.4 hPa Calm     77 % 0 mm
22:55 -7.6 °C -9.8 °C 34740.4 hPa Calm     77 % 0 mm
23:00 -7.6 °C -9.9 °C 34740.4 hPa West 3.1 km/h 3.1 km/h 77 % 0 mm
23:06 -7.7 °C -9.9 °C 34740.4 hPa West 3.1 km/h 3.1 km/h 77 % 0 mm
23:11 -7.7 °C -9.9 °C 34740.4 hPa West 2.3 km/h   77 % 0 mm
23:16 -7.7 °C -10 °C 34740.4 hPa West 3.1 km/h 3.1 km/h 77 % 0 mm
23:21 -7.8 °C -10.1 °C 34740.4 hPa West 3.1 km/h 3.1 km/h 77 % 0 mm
23:26 -7.8 °C -9.9 °C 34740.4 hPa Calm     78 % 0 mm
23:31 -7.8 °C -9.9 °C 34740.4 hPa Calm     78 % 0 mm
23:36 -7.8 °C -10 °C 34740.4 hPa Calm     78 % 0 mm
23:41 -7.8 °C -10 °C 34740.4 hPa Calm     78 % 0 mm
23:46 -7.8 °C -10 °C 34740.4 hPa Calm     78 % 0 mm
23:51 -7.9 °C -9.9 °C 34740.4 hPa Calm     79 % 0 mm
23:56 -7.9 °C -10 °C 34740.4 hPa NNW 3.7 km/h 3.7 km/h 79 % 0 mm
Meteo Sesrovires
Elogis d' Weather Underground - 1.5 mb

Guio original per  Jim McMurry - jmcmurry@mwt.net Adaptat per a la plantilla per  Wim van der Kuil - Leuven-Template.eu

Trobareu la nostra informacio del temps tambe a:

Weather Underground

AWEKAS